Time,TemperatureF,DewpointF,PressureIn,WindDirection,WindDirectionDegrees,WindSpeedMPH,WindSpeedGustMPH,Humidity,HourlyPrecipIn,Conditions,Clouds,dailyrainin,SoftwareType,DateUTC
2013-04-14 00:00:00,55.8,0.0,29.87,NNE,19,0.0,0.0,0,0.00,,,0.00,WUHU216PEETBRO,2013-04-14 07:00:00,
2013-04-14 00:05:00,55.8,0.0,29.86,NNE,19,0.0,0.0,0,0.00,,,0.00,WUHU216PEETBRO,2013-04-14 07:05:00,
2013-04-14 00:10:00,55.8,0.0,29.87,NNE,19,0.0,0.0,0,0.00,,,0.00,WUHU216PEETBRO,2013-04-14 07:10:00,
2013-04-14 00:15:00,55.5,0.0,29.87,NNE,19,0.0,0.0,0,0.00,,,0.00,WUHU216PEETBRO,2013-04-14 07:15:00,
2013-04-14 00:20:00,55.3,0.0,29.87,NNE,19,0.0,0.0,0,0.00,,,0.00,WUHU216PEETBRO,2013-04-14 07:20:00,
2013-04-14 00:25:00,55.3,0.0,29.87,NNE,19,0.0,0.0,0,0.00,,,0.00,WUHU216PEETBRO,2013-04-14 07:25:00,
2013-04-14 00:30:00,55.0,0.0,29.87,NNE,19,0.0,0.0,0,0.00,,,0.00,WUHU216PEETBRO,2013-04-14 07:30:00,
2013-04-14 00:35:00,54.6,0.0,29.87,NNE,19,0.0,0.0,0,0.00,,,0.00,WUHU216PEETBRO,2013-04-14 07:35:00,
2013-04-14 00:40:00,54.3,0.0,29.87,NNE,19,0.0,0.0,0,0.00,,,0.00,WUHU216PEETBRO,2013-04-14 07:40:00,
2013-04-14 00:45:00,54.0,0.0,29.87,NW,326,3.2,3.4,0,0.00,,,0.00,WUHU216PEETBRO,2013-04-14 07:45:00,
2013-04-14 00:50:00,54.0,0.0,29.87,NNW,338,2.9,3.5,0,0.00,,,0.00,WUHU216PEETBRO,2013-04-14 07:50:00,
2013-04-14 00:55:00,54.0,0.0,29.87,NNW,348,2.0,3.5,0,0.00,,,0.00,WUHU216PEETBRO,2013-04-14 07:55:00,
2013-04-14 01:00:00,54.3,0.0,29.87,NNW,348,0.0,2.9,0,0.00,,,0.00,WUHU216PEETBRO,2013-04-14 08:00:00,
2013-04-14 01:05:00,54.1,0.0,29.87,NNW,348,0.0,2.5,0,0.00,,,0.00,WUHU216PEETBRO,2013-04-14 08:05:00,
2013-04-14 01:10:00,53.8,0.0,29.87,NNW,348,0.0,0.0,0,0.00,,,0.00,WUHU216PEETBRO,2013-04-14 08:10:00,
2013-04-14 01:15:00,53.7,0.0,29.87,NW,319,2.9,4.3,0,0.00,,,0.00,WUHU216PEETBRO,2013-04-14 08:15:00,
2013-04-14 01:20:00,53.4,0.0,29.87,NW,317,0.0,4.3,0,0.00,,,0.00,WUHU216PEETBRO,2013-04-14 08:20:00,
2013-04-14 01:25:00,53.3,0.0,29.87,NW,317,0.0,3.4,0,0.00,,,0.00,WUHU216PEETBRO,2013-04-14 08:25:00,
2013-04-14 01:30:00,53.2,0.0,29.87,NW,317,3.5,4.5,0,0.00,,,0.00,WUHU216PEETBRO,2013-04-14 08:30:00,
2013-04-14 01:35:00,53.3,0.0,29.87,NNW,327,3.2,4.5,0,0.00,,,0.00,WUHU216PEETBRO,2013-04-14 08:35:00,
2013-04-14 01:40:00,53.3,0.0,29.87,NW,321,2.8,4.3,0,0.00,,,0.00,WUHU216PEETBRO,2013-04-14 08:40:00,
2013-04-14 01:45:00,53.1,0.0,29.86,NNW,327,0.0,3.5,0,0.00,,,0.00,WUHU216PEETBRO,2013-04-14 08:45:00,
2013-04-14 01:50:00,53.0,0.0,29.86,NNW,327,0.0,3.4,0,0.00,,,0.00,WUHU216PEETBRO,2013-04-14 08:50:00,
2013-04-14 01:55:00,52.9,0.0,29.86,NNW,327,0.0,0.0,0,0.00,,,0.00,WUHU216PEETBRO,2013-04-14 08:55:00,
2013-04-14 02:00:00,52.8,0.0,29.86,NNW,327,0.0,0.0,0,0.00,,,0.00,WUHU216PEETBRO,2013-04-14 09:00:00,
2013-04-14 02:05:00,52.7,0.0,29.86,NNW,327,0.0,0.0,0,0.00,,,0.00,WUHU216PEETBRO,2013-04-14 09:05:00,
2013-04-14 02:10:00,52.7,0.0,29.86,NNW,327,0.0,0.0,0,0.00,,,0.00,WUHU216PEETBRO,2013-04-14 09:10:00,
2013-04-14 02:15:00,52.7,0.0,29.86,NNW,327,0.0,0.0,0,0.00,,,0.00,WUHU216PEETBRO,2013-04-14 09:15:00,
2013-04-14 02:20:00,52.8,0.0,29.85,NNW,327,0.0,0.0,0,0.00,,,0.00,WUHU216PEETBRO,2013-04-14 09:20:00,
2013-04-14 02:25:00,52.7,0.0,29.85,NNW,327,0.0,0.0,0,0.00,,,0.00,WUHU216PEETBRO,2013-04-14 09:25:00,
2013-04-14 02:30:00,52.7,0.0,29.85,NNW,327,0.0,0.0,0,0.00,,,0.00,WUHU216PEETBRO,2013-04-14 09:30:00,
2013-04-14 02:35:00,52.7,0.0,29.85,NNW,327,0.0,0.0,0,0.00,,,0.00,WUHU216PEETBRO,2013-04-14 09:35:00,
2013-04-14 02:40:00,52.5,0.0,29.85,NNW,327,0.0,0.0,0,0.00,,,0.00,WUHU216PEETBRO,2013-04-14 09:40:00,
2013-04-14 02:45:00,52.5,0.0,29.85,NNW,327,0.0,0.0,0,0.00,,,0.00,WUHU216PEETBRO,2013-04-14 09:45:00,
2013-04-14 02:50:00,52.7,0.0,29.85,NNW,327,0.0,0.0,0,0.00,,,0.00,WUHU216PEETBRO,2013-04-14 09:50:00,
2013-04-14 02:55:00,52.5,0.0,29.85,NNW,327,0.0,0.0,0,0.00,,,0.00,WUHU216PEETBRO,2013-04-14 09:55:00,
2013-04-14 03:00:00,52.4,0.0,29.85,NNW,327,0.0,0.0,0,0.00,,,0.00,WUHU216PEETBRO,2013-04-14 10:00:00,
2013-04-14 03:05:00,52.2,0.0,29.85,NNW,327,0.0,0.0,0,0.00,,,0.00,WUHU216PEETBRO,2013-04-14 10:05:00,
2013-04-14 03:10:00,52.2,0.0,29.85,NNW,327,0.0,0.0,0,0.00,,,0.00,WUHU216PEETBRO,2013-04-14 10:10:00,
2013-04-14 03:15:00,52.0,0.0,29.85,NNW,327,0.0,0.0,0,0.00,,,0.00,WUHU216PEETBRO,2013-04-14 10:15:00,
2013-04-14 03:20:00,51.9,0.0,29.85,NW,326,3.2,4.5,0,0.00,,,0.00,WUHU216PEETBRO,2013-04-14 10:20:00,
2013-04-14 03:25:00,51.8,0.0,29.85,NW,321,0.0,4.5,0,0.00,,,0.00,WUHU216PEETBRO,2013-04-14 10:25:00,
2013-04-14 03:30:00,51.8,0.0,29.85,NW,321,0.0,3.5,0,0.00,,,0.00,WUHU216PEETBRO,2013-04-14 10:30:00,
2013-04-14 03:35:00,51.7,0.0,29.85,NW,321,0.0,0.0,0,0.00,,,0.00,WUHU216PEETBRO,2013-04-14 10:35:00,
2013-04-14 03:40:00,51.7,0.0,29.85,NW,321,0.0,0.0,0,0.00,,,0.00,WUHU216PEETBRO,2013-04-14 10:40:00,
2013-04-14 03:45:00,51.7,0.0,29.85,NW,321,0.0,0.0,0,0.00,,,0.00,WUHU216PEETBRO,2013-04-14 10:45:00,
2013-04-14 03:50:00,51.6,0.0,29.85,NW,321,0.0,0.0,0,0.00,,,0.00,WUHU216PEETBRO,2013-04-14 10:50:00,
2013-04-14 03:55:00,51.7,0.0,29.85,NW,321,0.0,0.0,0,0.00,,,0.00,WUHU216PEETBRO,2013-04-14 10:55:00,
2013-04-14 04:00:00,51.6,0.0,29.85,NW,321,0.0,0.0,0,0.00,,,0.00,WUHU216PEETBRO,2013-04-14 11:00:00,
2013-04-14 04:05:00,51.5,0.0,29.85,NW,321,0.0,0.0,0,0.00,,,0.00,WUHU216PEETBRO,2013-04-14 11:05:00,
2013-04-14 04:10:00,51.4,0.0,29.85,NW,321,0.0,0.0,0,0.00,,,0.00,WUHU216PEETBRO,2013-04-14 11:10:00,
2013-04-14 04:15:00,51.2,0.0,29.85,NW,321,0.0,0.0,0,0.00,,,0.00,WUHU216PEETBRO,2013-04-14 11:15:00,
2013-04-14 04:20:00,51.1,0.0,29.85,NW,321,0.0,0.0,0,0.00,,,0.00,WUHU216PEETBRO,2013-04-14 11:20:00,
2013-04-14 04:25:00,51.1,0.0,29.85,NW,321,0.0,0.0,0,0.00,,,0.00,WUHU216PEETBRO,2013-04-14 11:25:00,
2013-04-14 04:30:00,50.9,0.0,29.85,NW,321,0.0,0.0,0,0.00,,,0.00,WUHU216PEETBRO,2013-04-14 11:30:00,
2013-04-14 04:35:00,50.9,0.0,29.85,NW,321,0.0,0.0,0,0.00,,,0.00,WUHU216PEETBRO,2013-04-14 11:35:00,
2013-04-14 04:40:00,50.8,0.0,29.85,NW,321,0.0,0.0,0,0.00,,,0.00,WUHU216PEETBRO,2013-04-14 11:40:00,
2013-04-14 04:45:00,50.7,0.0,29.85,NW,321,0.0,0.0,0,0.00,,,0.00,WUHU216PEETBRO,2013-04-14 11:45:00,
2013-04-14 04:50:00,50.6,0.0,29.85,NW,321,0.0,0.0,0,0.00,,,0.00,WUHU216PEETBRO,2013-04-14 11:50:00,
2013-04-14 04:55:00,50.0,0.0,29.85,NW,321,0.0,0.0,0,0.00,,,0.00,WUHU216PEETBRO,2013-04-14 11:55:00,
2013-04-14 05:00:00,50.0,0.0,29.85,NW,321,0.0,0.0,0,0.00,,,0.00,WUHU216PEETBRO,2013-04-14 12:00:00,
2013-04-14 05:05:00,50.4,0.0,29.85,NW,321,0.0,0.0,0,0.00,,,0.00,WUHU216PEETBRO,2013-04-14 12:05:00,
2013-04-14 05:10:00,50.6,0.0,29.85,NW,321,0.0,0.0,0,0.00,,,0.00,WUHU216PEETBRO,2013-04-14 12:10:00,
2013-04-14 05:15:00,50.4,0.0,29.85,NW,321,0.0,0.0,0,0.00,,,0.00,WUHU216PEETBRO,2013-04-14 12:15:00,
2013-04-14 05:20:00,50.4,0.0,29.85,NW,321,0.0,0.0,0,0.00,,,0.00,WUHU216PEETBRO,2013-04-14 12:20:00,
2013-04-14 05:25:00,50.5,0.0,29.84,NW,321,0.0,0.0,0,0.00,,,0.00,WUHU216PEETBRO,2013-04-14 12:25:00,
2013-04-14 05:30:00,50.6,0.0,29.84,NW,321,0.0,0.0,0,0.00,,,0.00,WUHU216PEETBRO,2013-04-14 12:30:00,
2013-04-14 05:35:00,50.4,0.0,29.84,NW,321,0.0,0.0,0,0.00,,,0.00,WUHU216PEETBRO,2013-04-14 12:35:00,
2013-04-14 05:40:00,50.0,0.0,29.84,NW,321,0.0,0.0,0,0.00,,,0.00,WUHU216PEETBRO,2013-04-14 12:40:00,
2013-04-14 05:45:00,49.7,0.0,29.84,NW,321,0.0,0.0,0,0.00,,,0.00,WUHU216PEETBRO,2013-04-14 12:45:00,
2013-04-14 05:50:00,49.3,0.0,29.84,North,2,2.4,4.2,0,0.00,,,0.00,WUHU216PEETBRO,2013-04-14 12:50:00,
2013-04-14 05:55:00,48.9,0.0,29.84,NW,304,0.0,4.2,0,0.00,,,0.00,WUHU216PEETBRO,2013-04-14 12:55:00,
2013-04-14 06:00:00,48.6,0.0,29.84,NW,304,0.0,3.4,0,0.00,,,0.00,WUHU216PEETBRO,2013-04-14 13:00:00,
2013-04-14 06:05:00,48.8,0.0,29.84,NW,304,0.0,0.0,0,0.00,,,0.00,WUHU216PEETBRO,2013-04-14 13:05:00,
2013-04-14 06:10:00,49.1,0.0,29.83,NW,304,0.0,0.0,0,0.00,,,0.00,WUHU216PEETBRO,2013-04-14 13:10:00,
2013-04-14 06:15:00,49.2,0.0,29.83,NW,304,0.0,0.0,0,0.00,,,0.00,WUHU216PEETBRO,2013-04-14 13:15:00,
2013-04-14 06:20:00,48.9,0.0,29.83,NW,304,0.0,0.0,0,0.00,,,0.00,WUHU216PEETBRO,2013-04-14 13:20:00,
2013-04-14 06:25:00,48.4,0.0,29.84,NW,304,0.0,0.0,0,0.00,,,0.00,WUHU216PEETBRO,2013-04-14 13:25:00,
2013-04-14 06:30:00,47.8,0.0,29.84,NW,304,0.0,0.0,0,0.00,,,0.00,WUHU216PEETBRO,2013-04-14 13:30:00,
2013-04-14 06:35:00,48.1,0.0,29.84,NW,314,3.4,3.5,0,0.00,,,0.00,WUHU216PEETBRO,2013-04-14 13:35:00,
2013-04-14 06:40:00,48.1,0.0,29.84,NW,313,0.0,3.5,0,0.00,,,0.00,WUHU216PEETBRO,2013-04-14 13:40:00,
2013-04-14 06:45:00,48.4,0.0,29.84,NW,313,0.0,3.4,0,0.00,,,0.00,WUHU216PEETBRO,2013-04-14 13:45:00,
2013-04-14 06:50:00,48.6,0.0,29.84,NW,313,0.0,0.0,0,0.00,,,0.00,WUHU216PEETBRO,2013-04-14 13:50:00,
2013-04-14 06:55:00,48.8,0.0,29.84,NW,313,0.0,0.0,0,0.00,,,0.00,WUHU216PEETBRO,2013-04-14 13:55:00,
2013-04-14 07:00:00,48.8,0.0,29.84,NW,313,0.0,0.0,0,0.00,,,0.00,WUHU216PEETBRO,2013-04-14 14:00:00,
2013-04-14 07:05:00,48.7,0.0,29.85,NW,313,0.0,0.0,0,0.00,,,0.00,WUHU216PEETBRO,2013-04-14 14:05:00,
2013-04-14 07:10:00,49.1,0.0,29.85,NW,313,0.0,0.0,0,0.00,,,0.00,WUHU216PEETBRO,2013-04-14 14:10:00,
2013-04-14 07:15:00,49.3,0.0,29.85,NW,313,0.0,0.0,0,0.00,,,0.00,WUHU216PEETBRO,2013-04-14 14:15:00,
2013-04-14 07:20:00,49.4,0.0,29.85,NW,313,0.0,0.0,0,0.00,,,0.00,WUHU216PEETBRO,2013-04-14 14:20:00,
2013-04-14 07:25:00,49.9,0.0,29.85,NW,313,0.0,0.0,0,0.00,,,0.00,WUHU216PEETBRO,2013-04-14 14:25:00,
2013-04-14 07:30:00,50.2,0.0,29.85,NW,313,0.0,0.0,0,0.00,,,0.00,WUHU216PEETBRO,2013-04-14 14:30:00,
2013-04-14 07:35:00,50.4,0.0,29.85,NW,313,0.0,0.0,0,0.00,,,0.00,WUHU216PEETBRO,2013-04-14 14:35:00,
2013-04-14 07:40:00,50.7,0.0,29.85,NW,313,0.0,0.0,0,0.00,,,0.00,WUHU216PEETBRO,2013-04-14 14:40:00,
2013-04-14 07:45:00,50.8,0.0,29.85,NW,313,0.0,0.0,0,0.00,,,0.00,WUHU216PEETBRO,2013-04-14 14:45:00,
2013-04-14 07:50:00,50.8,0.0,29.85,NW,313,0.0,0.0,0,0.00,,,0.00,WUHU216PEETBRO,2013-04-14 14:50:00,
2013-04-14 07:55:00,51.0,0.0,29.85,NW,313,0.0,0.0,0,0.00,,,0.00,WUHU216PEETBRO,2013-04-14 14:55:00,
2013-04-14 08:00:00,51.2,0.0,29.85,NW,313,0.0,0.0,0,0.00,,,0.00,WUHU216PEETBRO,2013-04-14 15:00:00,
2013-04-14 08:05:00,51.3,0.0,29.86,NW,313,0.0,0.0,0,0.00,,,0.00,WUHU216PEETBRO,2013-04-14 15:05:00,
2013-04-14 08:10:00,51.5,0.0,29.85,NW,313,0.0,0.0,0,0.00,,,0.00,WUHU216PEETBRO,2013-04-14 15:10:00,
2013-04-14 08:15:00,51.8,0.0,29.86,NW,313,0.0,0.0,0,0.00,,,0.00,WUHU216PEETBRO,2013-04-14 15:15:00,
2013-04-14 08:20:00,52.1,0.0,29.86,NW,313,0.0,0.0,0,0.00,,,0.00,WUHU216PEETBRO,2013-04-14 15:20:00,
2013-04-14 08:25:00,52.5,0.0,29.87,NW,313,0.0,0.0,0,0.00,,,0.00,WUHU216PEETBRO,2013-04-14 15:25:00,
2013-04-14 08:30:00,52.7,0.0,29.87,NW,313,0.0,0.0,0,0.00,,,0.00,WUHU216PEETBRO,2013-04-14 15:30:00,
2013-04-14 08:35:00,52.9,0.0,29.87,NW,313,0.0,0.0,0,0.00,,,0.00,WUHU216PEETBRO,2013-04-14 15:35:00,
2013-04-14 08:40:00,53.0,0.0,29.87,NW,313,0.0,0.0,0,0.00,,,0.00,WUHU216PEETBRO,2013-04-14 15:40:00,
2013-04-14 08:45:00,53.1,0.0,29.87,West,266,0.0,4.1,0,0.00,,,0.00,WUHU216PEETBRO,2013-04-14 15:45:00,
2013-04-14 08:50:00,53.2,0.0,29.87,West,266,0.0,4.1,0,0.00,,,0.00,WUHU216PEETBRO,2013-04-14 15:50:00,
2013-04-14 08:55:00,53.5,0.0,29.87,West,266,0.0,0.0,0,0.00,,,0.00,WUHU216PEETBRO,2013-04-14 15:55:00,
2013-04-14 08:58:00,53.5,0.0,29.87,West,266,0.0,0.0,0,0.00,,,0.00,WUHU216PEETBRO,2013-04-14 15:58:00,
2013-04-14 09:02:00,53.5,0.0,29.87,West,266,0.0,0.0,0,0.00,,,0.00,WUHU216PEETBRO,2013-04-14 16:02:00,
2013-04-14 09:03:00,53.5,0.0,29.87,West,266,0.0,0.0,0,0.00,,,0.00,WUHU216PEETBRO,2013-04-14 16:03:00,
2013-04-14 09:05:00,53.6,0.0,29.87,West,266,0.0,0.0,0,0.00,,,0.00,WUHU216PEETBRO,2013-04-14 16:05:00,
2013-04-14 09:06:00,53.7,0.0,29.87,West,266,0.0,0.0,0,0.00,,,0.00,WUHU216PEETBRO,2013-04-14 16:06:00,
2013-04-14 09:09:00,53.9,0.0,29.87,West,266,0.0,0.0,0,0.00,,,0.00,WUHU216PEETBRO,2013-04-14 16:09:00,
2013-04-14 09:10:00,53.9,0.0,29.87,West,266,0.0,0.0,0,0.00,,,0.00,WUHU216PEETBRO,2013-04-14 16:10:00,
2013-04-14 09:12:00,53.9,0.0,29.87,West,266,0.0,0.0,0,0.00,,,0.00,WUHU216PEETBRO,2013-04-14 16:12:00,
2013-04-14 09:13:00,53.9,0.0,29.87,West,266,0.0,0.0,0,0.00,,,0.00,WUHU216PEETBRO,2013-04-14 16:13:00,
2013-04-14 09:15:00,53.8,0.0,29.87,West,266,0.0,0.0,0,0.00,,,0.00,WUHU216PEETBRO,2013-04-14 16:15:00,
2013-04-14 09:17:00,53.9,0.0,29.87,West,266,0.0,0.0,0,0.00,,,0.00,WUHU216PEETBRO,2013-04-14 16:17:00,
2013-04-14 09:18:00,54.0,0.0,29.87,West,266,0.0,0.0,0,0.00,,,0.00,WUHU216PEETBRO,2013-04-14 16:18:00,
2013-04-14 09:19:00,54.0,0.0,29.87,West,266,0.0,0.0,0,0.00,,,0.00,WUHU216PEETBRO,2013-04-14 16:19:00,
2013-04-14 09:21:00,54.1,0.0,29.87,West,266,0.0,0.0,0,0.00,,,0.00,WUHU216PEETBRO,2013-04-14 16:21:00,
2013-04-14 09:23:00,54.1,0.0,29.87,West,266,0.0,1.3,0,0.00,,,0.00,WUHU216PEETBRO,2013-04-14 16:23:00,
2013-04-14 09:24:00,54.1,0.0,29.87,West,266,0.0,1.3,0,0.00,,,0.00,WUHU216PEETBRO,2013-04-14 16:24:00,
2013-04-14 09:26:00,54.2,0.0,29.87,West,266,0.0,1.3,0,0.00,,,0.00,WUHU216PEETBRO,2013-04-14 16:26:00,
2013-04-14 09:27:00,54.4,0.0,29.87,West,266,0.0,1.3,0,0.00,,,0.00,WUHU216PEETBRO,2013-04-14 16:27:00,
2013-04-14 09:29:00,54.3,0.0,29.87,West,266,0.0,1.3,0,0.00,,,0.00,WUHU216PEETBRO,2013-04-14 16:29:00,
2013-04-14 09:30:00,54.5,0.0,29.87,West,266,0.0,1.3,0,0.00,,,0.00,WUHU216PEETBRO,2013-04-14 16:30:00,
2013-04-14 09:31:00,54.5,0.0,29.87,West,266,0.0,1.3,0,0.00,,,0.00,WUHU216PEETBRO,2013-04-14 16:31:00,
2013-04-14 09:34:00,54.8,0.0,29.87,West,266,0.0,0.0,0,0.00,,,0.00,WUHU216PEETBRO,2013-04-14 16:34:00,
2013-04-14 09:35:00,55.0,0.0,29.87,West,266,0.0,0.0,0,0.00,,,0.00,WUHU216PEETBRO,2013-04-14 16:35:00,
2013-04-14 09:36:00,55.1,0.0,29.87,West,266,0.0,0.0,0,0.00,,,0.00,WUHU216PEETBRO,2013-04-14 16:36:00,
2013-04-14 09:37:00,55.2,0.0,29.87,West,266,0.0,0.0,0,0.00,,,0.00,WUHU216PEETBRO,2013-04-14 16:37:00,
2013-04-14 09:39:00,55.2,0.0,29.87,West,266,0.0,0.0,0,0.00,,,0.00,WUHU216PEETBRO,2013-04-14 16:39:00,
2013-04-14 09:40:00,55.2,0.0,29.87,SE,131,0.0,3.5,0,0.00,,,0.00,WUHU216PEETBRO,2013-04-14 16:40:00,
2013-04-14 09:41:00,55.1,0.0,29.87,SSE,152,3.2,3.5,0,0.00,,,0.00,WUHU216PEETBRO,2013-04-14 16:41:00,
2013-04-14 09:42:00,55.1,0.0,29.87,SE,141,0.0,3.5,0,0.00,,,0.00,WUHU216PEETBRO,2013-04-14 16:42:00,
2013-04-14 09:44:00,55.2,0.0,29.87,SE,141,0.0,3.5,0,0.00,,,0.00,WUHU216PEETBRO,2013-04-14 16:44:00,
2013-04-14 09:46:00,55.7,0.0,29.87,SE,141,0.0,3.5,0,0.00,,,0.00,WUHU216PEETBRO,2013-04-14 16:46:00,
2013-04-14 09:47:00,55.6,0.0,29.87,SSE,167,2.5,3.5,0,0.00,,,0.00,WUHU216PEETBRO,2013-04-14 16:47:00,
2013-04-14 09:48:00,55.5,0.0,29.87,SSE,167,0.0,3.5,0,0.00,,,0.00,WUHU216PEETBRO,2013-04-14 16:48:00,
2013-04-14 09:50:00,55.5,0.0,29.87,SSE,167,0.0,3.4,0,0.00,,,0.00,WUHU216PEETBRO,2013-04-14 16:50:00,
2013-04-14 09:51:00,55.8,0.0,29.87,SSE,167,0.0,3.2,0,0.00,,,0.00,WUHU216PEETBRO,2013-04-14 16:51:00,
2013-04-14 09:52:00,56.0,0.0,29.87,SSE,167,0.0,2.6,0,0.00,,,0.00,WUHU216PEETBRO,2013-04-14 16:52:00,
2013-04-14 09:53:00,56.1,0.0,29.87,SSE,167,0.0,2.6,0,0.00,,,0.00,WUHU216PEETBRO,2013-04-14 16:53:00,
2013-04-14 09:55:00,55.9,0.0,29.87,SSE,167,0.0,2.6,0,0.00,,,0.00,WUHU216PEETBRO,2013-04-14 16:55:00,
2013-04-14 09:56:00,55.9,0.0,29.87,SSE,167,0.0,2.6,0,0.00,,,0.00,WUHU216PEETBRO,2013-04-14 16:56:00,
2013-04-14 09:58:00,55.9,0.0,29.87,SSE,148,0.0,2.5,0,0.00,,,0.00,WUHU216PEETBRO,2013-04-14 16:58:00,
2013-04-14 10:00:00,56.1,0.0,29.87,SSE,148,0.0,2.5,0,0.00,,,0.00,WUHU216PEETBRO,2013-04-14 17:00:00,
2013-04-14 10:01:00,56.2,0.0,29.87,SSE,148,0.0,2.5,0,0.00,,,0.00,WUHU216PEETBRO,2013-04-14 17:01:00,
2013-04-14 10:02:00,56.4,0.0,29.87,SSE,148,0.0,2.5,0,0.00,,,0.00,WUHU216PEETBRO,2013-04-14 17:02:00,
2013-04-14 10:05:00,56.5,0.0,29.87,SSE,148,0.0,2.5,0,0.00,,,0.00,WUHU216PEETBRO,2013-04-14 17:05:00,
2013-04-14 10:06:00,56.2,0.0,29.87,SSE,162,2.9,3.2,0,0.00,,,0.00,WUHU216PEETBRO,2013-04-14 17:06:00,
2013-04-14 10:07:00,56.3,0.0,29.87,East,88,1.9,3.4,0,0.00,,,0.00,WUHU216PEETBRO,2013-04-14 17:07:00,
2013-04-14 10:08:00,56.2,0.0,29.87,East,88,0.0,3.4,0,0.00,,,0.00,WUHU216PEETBRO,2013-04-14 17:08:00,
2013-04-14 10:10:00,56.5,0.0,29.86,ENE,71,0.0,4.3,0,0.00,,,0.00,WUHU216PEETBRO,2013-04-14 17:10:00,
2013-04-14 10:11:00,56.4,0.0,29.86,ENE,71,0.0,4.3,0,0.00,,,0.00,WUHU216PEETBRO,2013-04-14 17:11:00,
2013-04-14 10:12:00,56.7,0.0,29.86,NE,52,0.0,4.3,0,0.00,,,0.00,WUHU216PEETBRO,2013-04-14 17:12:00,
2013-04-14 10:13:00,56.7,0.0,29.86,NE,52,0.0,4.3,0,0.00,,,0.00,WUHU216PEETBRO,2013-04-14 17:13:00,
2013-04-14 10:15:00,56.5,0.0,29.86,NE,52,0.0,4.3,0,0.00,,,0.00,WUHU216PEETBRO,2013-04-14 17:15:00,
2013-04-14 10:17:00,56.6,0.0,29.86,ESE,104,0.0,5.2,0,0.00,,,0.00,WUHU216PEETBRO,2013-04-14 17:17:00,
2013-04-14 10:18:00,56.7,0.0,29.86,South,182,0.0,6.1,0,0.00,,,0.00,WUHU216PEETBRO,2013-04-14 17:18:00,
2013-04-14 10:20:00,57.0,0.0,29.86,South,182,0.0,6.1,0,0.00,,,0.00,WUHU216PEETBRO,2013-04-14 17:20:00,
2013-04-14 10:30:00,57.1,0.0,29.87,East,87,0.0,6.2,0,0.00,,,0.00,WUHU216PEETBRO,2013-04-14 17:30:00,
2013-04-14 10:35:00,57.6,0.0,29.86,South,184,0.0,6.5,0,0.00,,,0.00,WUHU216PEETBRO,2013-04-14 17:35:00,
2013-04-14 10:40:00,58.5,0.0,29.87,South,184,0.0,6.5,0,0.00,,,0.00,WUHU216PEETBRO,2013-04-14 17:40:00,
2013-04-14 10:45:00,58.5,0.0,29.87,South,184,0.0,0.0,0,0.00,,,0.00,WUHU216PEETBRO,2013-04-14 17:45:00,
2013-04-14 10:50:00,58.7,0.0,29.87,South,184,0.0,0.0,0,0.00,,,0.00,WUHU216PEETBRO,2013-04-14 17:50:00,
2013-04-14 10:55:00,59.5,0.0,29.87,SSW,201,3.3,7.8,0,0.00,,,0.00,WUHU216PEETBRO,2013-04-14 17:55:00,
2013-04-14 11:00:00,59.9,0.0,29.88,SSW,211,0.0,7.8,0,0.00,,,0.00,WUHU216PEETBRO,2013-04-14 18:00:00,
2013-04-14 11:05:00,60.2,0.0,29.88,SW,223,7.2,7.2,0,0.00,,,0.00,WUHU216PEETBRO,2013-04-14 18:05:00,
2013-04-14 11:10:00,60.1,0.0,29.88,South,173,0.0,9.5,0,0.00,,,0.00,WUHU216PEETBRO,2013-04-14 18:10:00,
2013-04-14 11:15:00,60.9,0.0,29.88,SSW,206,4.3,9.5,0,0.00,,,0.00,WUHU216PEETBRO,2013-04-14 18:15:00,
2013-04-14 11:20:00,60.7,0.0,29.88,SSW,193,0.0,6.7,0,0.00,,,0.00,WUHU216PEETBRO,2013-04-14 18:20:00,
2013-04-14 11:25:00,61.6,0.0,29.87,WSW,237,4.3,8.5,0,0.00,,,0.00,WUHU216PEETBRO,2013-04-14 18:25:00,
2013-04-14 11:30:00,61.0,0.0,29.88,SSW,208,2.6,8.5,0,0.00,,,0.00,WUHU216PEETBRO,2013-04-14 18:30:00,
2013-04-14 11:35:00,61.4,0.0,29.88,SW,220,5.9,7.9,0,0.00,,,0.00,WUHU216PEETBRO,2013-04-14 18:35:00,
2013-04-14 11:40:00,61.1,0.0,29.87,SSE,163,0.0,7.1,0,0.00,,,0.00,WUHU216PEETBRO,2013-04-14 18:40:00,
2013-04-14 11:45:00,62.2,0.0,29.87,SW,228,3.4,7.5,0,0.00,,,0.00,WUHU216PEETBRO,2013-04-14 18:45:00,
2013-04-14 11:50:00,62.4,0.0,29.87,West,271,2.9,7.5,0,0.00,,,0.00,WUHU216PEETBRO,2013-04-14 18:50:00,
2013-04-14 11:55:00,62.4,0.0,29.87,South,182,4.8,6.5,0,0.00,,,0.00,WUHU216PEETBRO,2013-04-14 18:55:00,
2013-04-14 12:00:00,62.9,0.0,29.87,SSW,203,3.4,7.4,0,0.00,,,0.00,WUHU216PEETBRO,2013-04-14 19:00:00,
2013-04-14 12:05:00,63.1,0.0,29.87,SSE,152,0.0,8.0,0,0.00,,,0.00,WUHU216PEETBRO,2013-04-14 19:05:00,
2013-04-14 12:10:00,63.4,0.0,29.87,South,176,3.5,8.0,0,0.00,,,0.00,WUHU216PEETBRO,2013-04-14 19:10:00,
2013-04-14 12:15:00,63.8,0.0,29.87,SSW,207,4.7,6.6,0,0.00,,,0.00,WUHU216PEETBRO,2013-04-14 19:15:00,
2013-04-14 12:20:00,63.6,0.0,29.87,SSE,162,5.7,7.6,0,0.00,,,0.00,WUHU216PEETBRO,2013-04-14 19:20:00,
2013-04-14 12:25:00,63.8,0.0,29.87,SSW,194,5.5,9.3,0,0.00,,,0.00,WUHU216PEETBRO,2013-04-14 19:25:00,
2013-04-14 12:30:00,63.5,0.0,29.87,SSW,199,6.3,9.3,0,0.00,,,0.00,WUHU216PEETBRO,2013-04-14 19:30:00,
2013-04-14 12:35:00,63.7,0.0,29.87,SE,146,0.0,8.7,0,0.00,,,0.00,WUHU216PEETBRO,2013-04-14 19:35:00,
2013-04-14 12:40:00,64.5,0.0,29.87,SSW,210,3.3,8.7,0,0.00,,,0.00,WUHU216PEETBRO,2013-04-14 19:40:00,
2013-04-14 12:45:00,65.2,0.0,29.86,SW,220,4.5,9.9,0,0.00,,,0.00,WUHU216PEETBRO,2013-04-14 19:45:00,
2013-04-14 12:50:00,64.1,0.0,29.86,South,169,4.1,11.8,0,0.00,,,0.00,WUHU216PEETBRO,2013-04-14 19:50:00,
2013-04-14 12:55:00,65.4,0.0,29.86,South,187,4.2,11.8,0,0.00,,,0.00,WUHU216PEETBRO,2013-04-14 19:55:00,
2013-04-14 13:00:00,64.4,0.0,29.86,SSW,211,5.2,9.3,0,0.00,,,0.00,WUHU216PEETBRO,2013-04-14 20:00:00,
2013-04-14 13:05:00,65.6,0.0,29.86,SSW,193,3.4,9.3,0,0.00,,,0.00,WUHU216PEETBRO,2013-04-14 20:05:00,
2013-04-14 13:10:00,66.0,0.0,29.85,SSW,193,0.0,6.9,0,0.00,,,0.00,WUHU216PEETBRO,2013-04-14 20:10:00,
2013-04-14 13:15:00,66.3,0.0,29.85,SSW,194,0.0,8.0,0,0.00,,,0.00,WUHU216PEETBRO,2013-04-14 20:15:00,
2013-04-14 13:20:00,66.4,0.0,29.86,SSW,213,3.2,8.0,0,0.00,,,0.00,WUHU216PEETBRO,2013-04-14 20:20:00,
2013-04-14 13:25:00,66.8,0.0,29.86,SE,131,1.7,7.3,0,0.00,,,0.00,WUHU216PEETBRO,2013-04-14 20:25:00,
2013-04-14 13:30:00,67.0,0.0,29.85,SW,227,0.0,7.3,0,0.00,,,0.00,WUHU216PEETBRO,2013-04-14 20:30:00,
2013-04-14 13:35:00,66.8,0.0,29.85,SSW,194,0.0,7.3,0,0.00,,,0.00,WUHU216PEETBRO,2013-04-14 20:35:00,
2013-04-14 13:40:00,68.4,0.0,29.86,SSE,160,0.0,7.1,0,0.00,,,0.00,WUHU216PEETBRO,2013-04-14 20:40:00,
2013-04-14 13:45:00,68.0,0.0,29.85,West,279,3.4,8.3,0,0.00,,,0.00,WUHU216PEETBRO,2013-04-14 20:45:00,
2013-04-14 13:50:00,68.7,0.0,29.86,WSW,248,6.2,9.1,0,0.00,,,0.00,WUHU216PEETBRO,2013-04-14 20:50:00,
2013-04-14 13:55:00,68.6,0.0,29.86,SSE,163,0.0,9.1,0,0.00,,,0.00,WUHU216PEETBRO,2013-04-14 20:55:00,
2013-04-14 14:00:00,69.5,0.0,29.87,SSE,166,3.5,8.5,0,0.00,,,0.00,WUHU216PEETBRO,2013-04-14 21:00:00,
2013-04-14 14:05:00,68.8,0.0,29.87,SSW,193,0.0,9.6,0,0.00,,,0.00,WUHU216PEETBRO,2013-04-14 21:05:00,
2013-04-14 14:10:00,69.2,0.0,29.87,SSE,162,6.4,9.6,0,0.00,,,0.00,WUHU216PEETBRO,2013-04-14 21:10:00,
2013-04-14 14:15:00,69.2,0.0,29.87,SSE,159,0.0,8.9,0,0.00,,,0.00,WUHU216PEETBRO,2013-04-14 21:15:00,
2013-04-14 14:20:00,69.2,0.0,29.86,SSW,194,3.3,9.4,0,0.00,,,0.00,WUHU216PEETBRO,2013-04-14 21:20:00,
2013-04-14 14:25:00,69.6,0.0,29.86,WSW,244,5.1,9.4,0,0.00,,,0.00,WUHU216PEETBRO,2013-04-14 21:25:00,
2013-04-14 14:30:00,69.4,0.0,29.86,South,190,5.9,9.8,0,0.00,,,0.00,WUHU216PEETBRO,2013-04-14 21:30:00,
2013-04-14 14:35:00,69.0,0.0,29.86,South,182,5.2,9.8,0,0.00,,,0.00,WUHU216PEETBRO,2013-04-14 21:35:00,
2013-04-14 14:40:00,69.9,0.0,29.85,South,175,0.0,8.9,0,0.00,,,0.00,WUHU216PEETBRO,2013-04-14 21:40:00,
2013-04-14 14:45:00,69.6,0.0,29.85,South,183,3.2,8.9,0,0.00,,,0.00,WUHU216PEETBRO,2013-04-14 21:45:00,
2013-04-14 14:50:00,70.0,0.0,29.85,SSW,204,3.4,8.4,0,0.00,,,0.00,WUHU216PEETBRO,2013-04-14 21:50:00,
2013-04-14 14:55:00,70.0,0.0,29.84,SSW,194,5.6,7.9,0,0.00,,,0.00,WUHU216PEETBRO,2013-04-14 21:55:00,
2013-04-14 15:00:00,70.9,0.0,29.84,SSW,194,0.0,8.0,0,0.00,,,0.00,WUHU216PEETBRO,2013-04-14 22:00:00,
2013-04-14 15:05:00,70.4,0.0,29.84,SSW,207,3.5,8.5,0,0.00,,,0.00,WUHU216PEETBRO,2013-04-14 22:05:00,
2013-04-14 15:10:00,70.4,0.0,29.84,South,173,5.0,8.5,0,0.00,,,0.00,WUHU216PEETBRO,2013-04-14 22:10:00,
2013-04-14 15:15:00,70.1,0.0,29.84,SSE,148,0.0,9.1,0,0.00,,,0.00,WUHU216PEETBRO,2013-04-14 22:15:00,
2013-04-14 15:20:00,68.9,0.0,29.84,ESE,121,0.0,9.1,0,0.00,,,0.00,WUHU216PEETBRO,2013-04-14 22:20:00,
2013-04-14 15:25:00,69.4,0.0,29.84,SW,228,6.3,11.9,0,0.00,,,0.00,WUHU216PEETBRO,2013-04-14 22:25:00,
2013-04-14 15:30:00,68.2,0.0,29.84,SE,146,0.0,11.9,0,0.00,,,0.00,WUHU216PEETBRO,2013-04-14 22:30:00,
2013-04-14 15:35:00,69.5,0.0,29.84,WSW,251,6.3,11.4,0,0.00,,,0.00,WUHU216PEETBRO,2013-04-14 22:35:00,
2013-04-14 15:40:00,68.8,0.0,29.83,South,189,2.8,8.1,0,0.00,,,0.00,WUHU216PEETBRO,2013-04-14 22:40:00,
2013-04-14 15:45:00,68.4,0.0,29.83,WSW,248,0.0,8.3,0,0.00,,,0.00,WUHU216PEETBRO,2013-04-14 22:45:00,
2013-04-14 15:50:00,68.9,0.0,29.83,SE,127,0.0,8.3,0,0.00,,,0.00,WUHU216PEETBRO,2013-04-14 22:50:00,
2013-04-14 15:55:00,67.8,0.0,29.83,South,184,6.0,7.1,0,0.00,,,0.00,WUHU216PEETBRO,2013-04-14 22:55:00,
2013-04-14 16:00:00,68.1,0.0,29.83,SSE,162,0.0,7.1,0,0.00,,,0.00,WUHU216PEETBRO,2013-04-14 23:00:00,
2013-04-14 16:05:00,68.2,0.0,29.82,South,183,0.0,7.0,0,0.00,,,0.00,WUHU216PEETBRO,2013-04-14 23:05:00,
2013-04-14 16:10:00,68.3,0.0,29.82,SSW,210,4.6,9.3,0,0.00,,,0.00,WUHU216PEETBRO,2013-04-14 23:10:00,
2013-04-14 16:15:00,68.3,0.0,29.82,SE,143,0.0,9.3,0,0.00,,,0.00,WUHU216PEETBRO,2013-04-14 23:15:00,
2013-04-14 16:20:00,68.2,0.0,29.82,SSE,155,4.2,5.7,0,0.00,,,0.00,WUHU216PEETBRO,2013-04-14 23:20:00,
2013-04-14 16:25:00,68.0,0.0,29.82,South,189,0.0,6.8,0,0.00,,,0.00,WUHU216PEETBRO,2013-04-14 23:25:00,
2013-04-14 16:30:00,68.0,0.0,29.81,South,170,0.0,6.8,0,0.00,,,0.00,WUHU216PEETBRO,2013-04-14 23:30:00,
2013-04-14 16:35:00,68.7,0.0,29.81,South,170,5.5,7.1,0,0.00,,,0.00,WUHU216PEETBRO,2013-04-14 23:35:00,
2013-04-14 16:40:00,67.8,0.0,29.80,South,179,5.7,7.8,0,0.00,,,0.00,WUHU216PEETBRO,2013-04-14 23:40:00,
2013-04-14 16:45:00,67.9,0.0,29.80,SSE,163,6.2,7.8,0,0.00,,,0.00,WUHU216PEETBRO,2013-04-14 23:45:00,
2013-04-14 16:50:00,67.3,0.0,29.80,SSE,166,5.7,8.9,0,0.00,,,0.00,WUHU216PEETBRO,2013-04-14 23:50:00,
2013-04-14 16:55:00,68.4,0.0,29.80,SSE,148,0.0,8.9,0,0.00,,,0.00,WUHU216PEETBRO,2013-04-14 23:55:00,
2013-04-14 17:00:00,67.7,0.0,29.80,South,180,7.3,9.9,0,0.00,,,0.00,WUHU216PEETBRO,2013-04-15 00:00:00,
2013-04-14 17:05:00,66.8,0.0,29.80,South,186,5.7,9.9,0,0.00,,,0.00,WUHU216PEETBRO,2013-04-15 00:05:00,
2013-04-14 17:10:00,66.9,0.0,29.80,SSE,158,3.2,9.1,0,0.00,,,0.00,WUHU216PEETBRO,2013-04-15 00:10:00,
2013-04-14 17:15:00,67.1,0.0,29.80,ESE,108,3.1,7.3,0,0.00,,,0.00,WUHU216PEETBRO,2013-04-15 00:15:00,
2013-04-14 17:20:00,66.7,0.0,29.79,South,172,4.2,7.6,0,0.00,,,0.00,WUHU216PEETBRO,2013-04-15 00:20:00,
2013-04-14 17:25:00,65.5,0.0,29.79,South,175,3.3,8.0,0,0.00,,,0.00,WUHU216PEETBRO,2013-04-15 00:25:00,
2013-04-14 17:30:00,64.7,0.0,29.79,SSE,151,3.1,9.3,0,0.00,,,0.00,WUHU216PEETBRO,2013-04-15 00:30:00,
2013-04-14 17:35:00,65.1,0.0,29.79,South,180,0.0,9.3,0,0.00,,,0.00,WUHU216PEETBRO,2013-04-15 00:35:00,
2013-04-14 17:40:00,64.8,0.0,29.79,SE,146,0.0,6.0,0,0.00,,,0.00,WUHU216PEETBRO,2013-04-15 00:40:00,
2013-04-14 17:45:00,64.4,0.0,29.79,South,176,4.8,8.3,0,0.00,,,0.00,WUHU216PEETBRO,2013-04-15 00:45:00,
2013-04-14 17:50:00,63.9,0.0,29.79,SSE,165,0.0,8.3,0,0.00,,,0.00,WUHU216PEETBRO,2013-04-15 00:50:00,
2013-04-14 17:55:00,63.5,0.0,29.79,SSE,163,0.0,8.0,0,0.00,,,0.00,WUHU216PEETBRO,2013-04-15 00:55:00,
2013-04-14 18:00:00,63.4,0.0,29.79,ESE,103,0.0,6.8,0,0.00,,,0.00,WUHU216PEETBRO,2013-04-15 01:00:00,
2013-04-14 18:05:00,63.2,0.0,29.79,SSE,162,4.2,6.8,0,0.00,,,0.00,WUHU216PEETBRO,2013-04-15 01:05:00,
2013-04-14 18:10:00,62.9,0.0,29.79,SE,125,0.0,7.0,0,0.00,,,0.00,WUHU216PEETBRO,2013-04-15 01:10:00,
2013-04-14 18:15:00,62.3,0.0,29.78,South,179,9.5,9.5,0,0.00,,,0.00,WUHU216PEETBRO,2013-04-15 01:15:00,
2013-04-14 18:20:00,62.3,0.0,29.78,South,170,5.0,9.5,0,0.00,,,0.00,WUHU216PEETBRO,2013-04-15 01:20:00,
2013-04-14 18:25:00,62.0,0.0,29.78,South,183,5.9,9.5,0,0.00,,,0.00,WUHU216PEETBRO,2013-04-15 01:25:00,
2013-04-14 18:30:00,62.2,0.0,29.78,East,79,0.0,8.7,0,0.00,,,0.00,WUHU216PEETBRO,2013-04-15 01:30:00,
2013-04-14 18:35:00,62.0,0.0,29.78,East,80,0.0,6.5,0,0.00,,,0.00,WUHU216PEETBRO,2013-04-15 01:35:00,
2013-04-14 18:40:00,61.7,0.0,29.78,SE,143,3.0,5.4,0,0.00,,,0.00,WUHU216PEETBRO,2013-04-15 01:40:00,
2013-04-14 18:45:00,61.1,0.0,29.78,South,169,6.5,7.6,0,0.00,,,0.00,WUHU216PEETBRO,2013-04-15 01:45:00,
2013-04-14 18:50:00,60.8,0.0,29.78,SE,128,1.4,7.6,0,0.00,,,0.00,WUHU216PEETBRO,2013-04-15 01:50:00,
2013-04-14 18:55:00,60.6,0.0,29.77,SSE,156,6.6,7.0,0,0.00,,,0.00,WUHU216PEETBRO,2013-04-15 01:55:00,
2013-04-14 19:00:00,60.3,0.0,29.77,ESE,122,0.0,6.6,0,0.00,,,0.00,WUHU216PEETBRO,2013-04-15 02:00:00,
2013-04-14 19:05:00,60.1,0.0,29.77,SSE,163,6.3,6.9,0,0.00,,,0.00,WUHU216PEETBRO,2013-04-15 02:05:00,
2013-04-14 19:10:00,60.0,0.0,29.77,SE,124,0.0,8.8,0,0.00,,,0.00,WUHU216PEETBRO,2013-04-15 02:10:00,
2013-04-14 19:15:00,59.9,0.0,29.77,ESE,117,0.0,8.8,0,0.00,,,0.00,WUHU216PEETBRO,2013-04-15 02:15:00,
2013-04-14 19:20:00,59.5,0.0,29.77,ESE,108,4.2,9.3,0,0.00,,,0.00,WUHU216PEETBRO,2013-04-15 02:20:00,
2013-04-14 19:25:00,59.5,0.0,29.77,SE,127,3.4,9.3,0,0.00,,,0.00,WUHU216PEETBRO,2013-04-15 02:25:00,
2013-04-14 19:30:00,59.2,0.0,29.76,ESE,119,0.0,8.3,0,0.00,,,0.00,WUHU216PEETBRO,2013-04-15 02:30:00,
2013-04-14 19:35:00,59.1,0.0,29.77,SE,134,0.0,8.1,0,0.00,,,0.00,WUHU216PEETBRO,2013-04-15 02:35:00,
2013-04-14 19:40:00,58.9,0.0,29.77,South,172,0.0,6.2,0,0.00,,,0.00,WUHU216PEETBRO,2013-04-15 02:40:00,
2013-04-14 19:45:00,58.9,0.0,29.76,South,169,0.0,6.2,0,0.00,,,0.00,WUHU216PEETBRO,2013-04-15 02:45:00,
2013-04-14 19:50:00,58.6,0.0,29.76,South,169,0.0,4.8,0,0.00,,,0.00,WUHU216PEETBRO,2013-04-15 02:50:00,
2013-04-14 19:55:00,58.4,0.0,29.76,South,169,0.0,0.0,0,0.00,,,0.00,WUHU216PEETBRO,2013-04-15 02:55:00,
2013-04-14 20:00:00,58.2,0.0,29.76,South,169,0.0,0.0,0,0.00,,,0.00,WUHU216PEETBRO,2013-04-15 03:00:00,
2013-04-14 20:05:00,58.0,0.0,29.76,South,169,0.0,6.4,0,0.00,,,0.00,WUHU216PEETBRO,2013-04-15 03:05:00,
2013-04-14 20:10:00,58.0,0.0,29.76,ESE,103,3.0,6.4,0,0.00,,,0.00,WUHU216PEETBRO,2013-04-15 03:10:00,
2013-04-14 20:15:00,57.7,0.0,29.76,ESE,103,3.2,8.5,0,0.00,,,0.00,WUHU216PEETBRO,2013-04-15 03:15:00,
2013-04-14 20:20:00,57.7,0.0,29.76,ESE,108,0.0,8.5,0,0.00,,,0.00,WUHU216PEETBRO,2013-04-15 03:20:00,
2013-04-14 20:25:00,57.3,0.0,29.76,ESE,117,3.5,7.3,0,0.00,,,0.00,WUHU216PEETBRO,2013-04-15 03:25:00,
2013-04-14 20:30:00,57.4,0.0,29.76,SSE,163,5.5,9.8,0,0.00,,,0.00,WUHU216PEETBRO,2013-04-15 03:30:00,
2013-04-14 20:35:00,57.4,0.0,29.76,ESE,110,4.8,9.8,0,0.00,,,0.00,WUHU216PEETBRO,2013-04-15 03:35:00,
2013-04-14 20:40:00,57.7,0.0,29.76,ESE,114,0.0,8.1,0,0.00,,,0.00,WUHU216PEETBRO,2013-04-15 03:40:00,
2013-04-14 20:45:00,57.4,0.0,29.76,SE,146,0.0,7.0,0,0.00,,,0.00,WUHU216PEETBRO,2013-04-15 03:45:00,
2013-04-14 20:50:00,57.2,0.0,29.76,SSE,152,5.0,7.3,0,0.00,,,0.00,WUHU216PEETBRO,2013-04-15 03:50:00,
2013-04-14 20:55:00,57.1,0.0,29.76,SSE,165,6.6,7.3,0,0.00,,,0.00,WUHU216PEETBRO,2013-04-15 03:55:00,
2013-04-14 21:00:00,56.9,0.0,29.77,SE,124,0.0,7.3,0,0.00,,,0.00,WUHU216PEETBRO,2013-04-15 04:00:00,
2013-04-14 21:05:00,56.7,0.0,29.77,ESE,107,0.0,7.3,0,0.00,,,0.00,WUHU216PEETBRO,2013-04-15 04:05:00,
2013-04-14 21:10:00,56.7,0.0,29.77,SSE,149,4.3,7.8,0,0.00,,,0.00,WUHU216PEETBRO,2013-04-15 04:10:00,
2013-04-14 21:15:00,56.4,0.0,29.77,SE,135,0.0,7.8,0,0.00,,,0.00,WUHU216PEETBRO,2013-04-15 04:15:00,
2013-04-14 21:20:00,56.5,0.0,29.77,SE,135,0.0,5.2,0,0.00,,,0.00,WUHU216PEETBRO,2013-04-15 04:20:00,
2013-04-14 21:25:00,56.2,0.0,29.77,SE,135,0.0,0.0,0,0.00,,,0.00,WUHU216PEETBRO,2013-04-15 04:25:00,
2013-04-14 21:30:00,55.9,0.0,29.77,SSE,156,0.0,5.5,0,0.00,,,0.00,WUHU216PEETBRO,2013-04-15 04:30:00,
2013-04-14 21:35:00,55.9,0.0,29.77,SE,142,6.5,6.8,0,0.00,,,0.00,WUHU216PEETBRO,2013-04-15 04:35:00,
2013-04-14 21:40:00,55.5,0.0,29.77,South,176,5.2,7.1,0,0.00,,,0.00,WUHU216PEETBRO,2013-04-15 04:40:00,
2013-04-14 21:45:00,55.4,0.0,29.78,SW,217,9.1,9.6,0,0.00,,,0.00,WUHU216PEETBRO,2013-04-15 04:45:00,
2013-04-14 21:50:00,55.2,0.0,29.78,South,169,5.3,9.6,0,0.00,,,0.00,WUHU216PEETBRO,2013-04-15 04:50:00,
2013-04-14 21:55:00,55.3,0.0,29.78,SSE,151,0.0,7.8,0,0.00,,,0.00,WUHU216PEETBRO,2013-04-15 04:55:00,
2013-04-14 22:00:00,55.1,0.0,29.78,SSE,163,0.0,5.9,0,0.00,,,0.00,WUHU216PEETBRO,2013-04-15 05:00:00,
2013-04-14 22:05:00,54.9,0.0,29.78,SE,127,0.0,6.0,0,0.00,,,0.00,WUHU216PEETBRO,2013-04-15 05:05:00,
2013-04-14 22:10:00,54.6,0.0,29.78,ESE,104,2.5,6.9,0,0.00,,,0.00,WUHU216PEETBRO,2013-04-15 05:10:00,
2013-04-14 22:15:00,54.4,0.0,29.79,ESE,108,0.0,6.9,0,0.00,,,0.00,WUHU216PEETBRO,2013-04-15 05:15:00,
2013-04-14 22:20:00,54.1,0.0,29.79,SSE,167,5.6,8.7,0,0.00,,,0.00,WUHU216PEETBRO,2013-04-15 05:20:00,
2013-04-14 22:25:00,53.6,0.0,29.79,South,177,5.4,9.9,0,0.00,,,0.00,WUHU216PEETBRO,2013-04-15 05:25:00,
2013-04-14 22:30:00,53.4,0.0,29.79,South,173,8.2,9.9,0,0.00,,,0.00,WUHU216PEETBRO,2013-04-15 05:30:00,
2013-04-14 22:35:00,53.3,0.0,29.79,SSW,194,4.8,9.7,0,0.00,,,0.00,WUHU216PEETBRO,2013-04-15 05:35:00,
2013-04-14 22:40:00,53.3,0.0,29.79,South,169,5.1,8.8,0,0.00,,,0.00,WUHU216PEETBRO,2013-04-15 05:40:00,
2013-04-14 22:45:00,53.2,0.0,29.79,South,187,7.3,7.8,0,0.00,,,0.00,WUHU216PEETBRO,2013-04-15 05:45:00,
2013-04-14 22:50:00,52.8,0.0,29.79,SSE,151,5.9,9.5,0,0.00,,,0.00,WUHU216PEETBRO,2013-04-15 05:50:00,
2013-04-14 22:55:00,52.7,0.0,29.79,SSE,158,6.1,9.5,0,0.00,,,0.00,WUHU216PEETBRO,2013-04-15 05:55:00,
2013-04-14 23:00:00,52.7,0.0,29.79,SSE,149,4.8,10.0,0,0.00,,,0.00,WUHU216PEETBRO,2013-04-15 06:00:00,
2013-04-14 23:05:00,52.6,0.0,29.79,SSE,156,4.3,10.0,0,0.00,,,0.00,WUHU216PEETBRO,2013-04-15 06:05:00,
2013-04-14 23:10:00,52.6,0.0,29.79,SSE,165,3.4,9.6,0,0.00,,,0.00,WUHU216PEETBRO,2013-04-15 06:10:00,
2013-04-14 23:15:00,52.6,0.0,29.79,South,180,4.6,9.6,0,0.00,,,0.00,WUHU216PEETBRO,2013-04-15 06:15:00,
2013-04-14 23:20:00,52.3,0.0,29.79,SSE,167,7.0,8.0,0,0.00,,,0.00,WUHU216PEETBRO,2013-04-15 06:20:00,
2013-04-14 23:25:00,52.2,0.0,29.79,South,180,5.7,9.0,0,0.00,,,0.00,WUHU216PEETBRO,2013-04-15 06:25:00,
2013-04-14 23:30:00,52.0,0.0,29.79,SSE,165,5.5,9.0,0,0.00,,,0.00,WUHU216PEETBRO,2013-04-15 06:30:00,
2013-04-14 23:35:00,51.8,0.0,29.79,South,176,5.2,8.3,0,0.00,,,0.00,WUHU216PEETBRO,2013-04-15 06:35:00,
2013-04-14 23:40:00,51.8,0.0,29.79,South,184,5.5,7.6,0,0.00,,,0.00,WUHU216PEETBRO,2013-04-15 06:40:00,
2013-04-14 23:45:00,51.7,0.0,29.79,East,95,0.0,6.8,0,0.00,,,0.00,WUHU216PEETBRO,2013-04-15 06:45:00,
2013-04-14 23:50:00,51.5,0.0,29.79,ESE,121,3.5,6.2,0,0.00,,,0.00,WUHU216PEETBRO,2013-04-15 06:50:00,
2013-04-14 23:55:00,51.2,0.0,29.79,ESE,112,3.5,6.5,0,0.00,,,0.00,WUHU216PEETBRO,2013-04-15 06:55:00,